Time;durP1;ratioP1;P1;durP2;ratioP2;P2;SDS_P1;SDS_P2;PMS_P1;PMS_P2;Temp;Humidity;BMP_temperature;BMP_pressure;BME280_temperature;BME280_humidity;BME280_pressure;Samples;Min_cycle;Max_cycle;Signal;HPM_P1;HPM_P2
2022/12/11 00:02:19;;;;;;;;;;;-0.10;99.90;;;;;;5018298;28;19925;-81
2022/12/11 00:04:44;;;;;;;;;;;-0.10;99.90;;;;;;5019054;28;19984;-82
2022/12/11 00:07:10;;;;;;;;;;;-0.10;99.90;;;;;;5018342;28;19969;-80
2022/12/11 00:09:36;;;;;;;;;;;-0.10;99.90;;;;;;5020602;28;19972;-79
2022/12/11 00:12:01;;;;;;;;;;;-0.20;99.90;;;;;;5022925;28;19928;-81
2022/12/11 00:14:28;;;;;;;;;;;-0.10;99.90;;;;;;5001951;28;20269;-80
2022/12/11 00:16:53;;;;;;;;;;;-0.10;99.90;;;;;;5017541;28;20353;-81
2022/12/11 00:19:19;;;;;;;;;;;-0.10;99.90;;;;;;5016599;28;19921;-81
2022/12/11 00:21:45;;;;;;;;;;;-0.10;99.90;;;;;;5014411;28;19984;-86
2022/12/11 00:24:10;;;;;;;;;;;-0.20;99.90;;;;;;5014501;28;20384;-80
2022/12/11 00:26:36;;;;;;;;;;;-0.10;99.90;;;;;;5014365;28;19928;-81
2022/12/11 00:29:01;;;;;;;;;;;-0.10;99.90;;;;;;5015165;28;19925;-81
2022/12/11 00:31:27;;;;;;;;;;;-0.10;99.90;;;;;;5015480;28;19925;-80
2022/12/11 00:33:52;;;;;;;;;;;-0.10;99.90;;;;;;5013889;28;19922;-81
2022/12/11 00:36:22;;;;;;;;;;;0.00;99.90;;;;;;5013636;28;19922;-81
2022/12/11 00:38:48;;;;;;;;;;;0.00;99.90;;;;;;5014238;28;19929;-84
2022/12/11 00:41:14;;;;;;;;;;;-0.10;99.90;;;;;;5014892;28;19921;-81
2022/12/11 00:43:40;;;;;;;;;;;0.00;99.90;;;;;;5014240;28;20017;-81
2022/12/11 00:46:06;;;;;;;;;;;0.00;99.90;;;;;;5013428;28;19960;-81
2022/12/11 00:48:31;;;;;;;;;;;0.00;99.90;;;;;;5014701;28;19972;-81
2022/12/11 00:50:57;;;;;;;;;;;0.00;99.90;;;;;;5014139;28;19925;-81
2022/12/11 00:53:22;;;;;;;;;;;0.00;99.90;;;;;;5015325;28;19921;-80
2022/12/11 00:55:48;;;;;;;;;;;0.00;99.90;;;;;;5014289;28;20373;-81
2022/12/11 00:58:14;;;;;;;;;;;0.00;99.90;;;;;;5015035;28;19982;-83
2022/12/11 01:00:40;;;;;;;;;;;0.00;99.90;;;;;;5013402;28;20337;-81
2022/12/11 01:03:05;;;;;;;;;;;0.00;99.90;;;;;;5014427;28;19921;-81
2022/12/11 01:05:31;;;;;;;;;;;0.00;99.90;;;;;;5013420;28;19921;-81
2022/12/11 01:07:57;;;;;;;;;;;0.00;99.90;;;;;;5013101;28;19925;-84
2022/12/11 01:10:22;;;;;;;;;;;0.10;99.90;;;;;;5014491;28;19972;-81
2022/12/11 01:12:58;;;;;;;;;;;0.00;99.90;;;;;;5014100;28;19922;-80
2022/12/11 01:15:26;;;;;;;;;;;0.00;99.90;;;;;;5013703;28;20268;-80
2022/12/11 01:17:52;;;;;;;;;;;0.00;99.90;;;;;;5013484;28;20366;-80
2022/12/11 01:20:18;;;;;;;;;;;0.00;99.90;;;;;;4997028;28;19968;-81
2022/12/11 01:22:44;;;;;;;;;;;0.10;99.90;;;;;;5014558;28;19925;-81
2022/12/11 01:25:09;;;;;;;;;;;0.10;99.90;;;;;;5014062;28;20368;-81
2022/12/11 01:27:36;;;;;;;;;;;0.10;99.90;;;;;;5014026;28;19921;-81
2022/12/11 01:30:02;;;;;;;;;;;0.00;99.90;;;;;;5014185;28;19928;-81
2022/12/11 01:32:28;;;;;;;;;;;0.10;99.90;;;;;;5012937;28;19922;-80
2022/12/11 01:34:53;;;;;;;;;;;0.10;99.90;;;;;;5013009;28;19927;-80
2022/12/11 01:37:19;;;;;;;;;;;0.10;99.90;;;;;;5014459;28;20002;-82
2022/12/11 01:39:45;;;;;;;;;;;0.10;99.90;;;;;;5013064;28;19921;-81
2022/12/11 01:42:15;;;;;;;;;;;0.10;99.90;;;;;;5014068;28;19972;-81
2022/12/11 01:44:41;;;;;;;;;;;0.30;99.90;;;;;;5013031;28;19933;-80
2022/12/11 01:47:07;;;;;;;;;;;0.20;99.90;;;;;;5013020;28;19925;-88
2022/12/11 01:49:32;;;;;;;;;;;0.20;99.90;;;;;;5014251;28;19921;-80
2022/12/11 01:52:02;;;;;;;;;;;0.10;99.90;;;;;;5014444;28;19921;-80
2022/12/11 01:54:27;;;;;;;;;;;0.20;99.90;;;;;;5012699;28;19965;-80
2022/12/11 01:56:54;;;;;;;;;;;0.30;99.90;;;;;;5017776;28;19999;-81
2022/12/11 01:59:23;;;;;;;;;;;0.20;99.90;;;;;;5017779;28;19925;-81
2022/12/11 02:01:52;;;;;;;;;;;0.20;99.90;;;;;;5017702;28;19969;-80
2022/12/11 02:04:18;;;;;;;;;;;0.20;99.90;;;;;;5016674;28;19926;-81
2022/12/11 02:06:45;;;;;;;;;;;0.20;99.90;;;;;;5016608;28;20351;-80
2022/12/11 02:09:16;;;;;;;;;;;0.20;99.90;;;;;;5017910;28;20440;-81
2022/12/11 02:11:54;;;;;;;;;;;0.20;99.90;;;;;;5017559;28;19973;-81
2022/12/11 02:14:49;;;;;;;;;;;0.20;99.90;;;;;;5017433;28;20383;-80
2022/12/11 02:17:14;;;;;;;;;;;0.30;99.90;;;;;;5015439;28;19925;-80
2022/12/11 02:19:58;;;;;;;;;;;0.30;99.90;;;;;;5000315;28;19921;-81
2022/12/11 02:22:33;;;;;;;;;;;0.20;99.90;;;;;;5017202;28;19956;-80
2022/12/11 02:25:16;;;;;;;;;;;0.20;99.90;;;;;;5017399;28;19976;-82
2022/12/11 02:27:47;;;;;;;;;;;0.30;99.90;;;;;;5024172;28;19945;-81
2022/12/11 02:30:14;;;;;;;;;;;0.30;99.90;;;;;;5017161;28;19944;-81
2022/12/11 02:33:00;;;;;;;;;;;0.30;99.90;;;;;;5016669;28;20355;-82
2022/12/11 02:35:25;;;;;;;;;;;0.30;99.90;;;;;;5016871;28;19929;-80
2022/12/11 02:37:55;;;;;;;;;;;0.30;99.90;;;;;;5017458;28;19925;-81
2022/12/11 02:40:23;;;;;;;;;;;0.30;99.90;;;;;;5016613;28;20285;-80
2022/12/11 02:42:49;;;;;;;;;;;0.30;99.90;;;;;;5017096;28;19921;-80
2022/12/11 02:45:15;;;;;;;;;;;0.30;99.90;;;;;;5016488;28;20245;-80
2022/12/11 02:47:43;;;;;;;;;;;0.30;99.90;;;;;;5000453;28;20011;-81
2022/12/11 02:50:11;;;;;;;;;;;0.30;99.90;;;;;;5017166;28;19967;-81
2022/12/11 02:52:38;;;;;;;;;;;0.40;99.90;;;;;;5015426;28;19925;-81
2022/12/11 02:55:05;;;;;;;;;;;0.30;99.90;;;;;;5016259;28;19922;-82
2022/12/11 02:57:34;;;;;;;;;;;0.30;99.90;;;;;;5016076;28;20353;-80
2022/12/11 02:59:59;;;;;;;;;;;0.30;99.90;;;;;;4999352;28;19921;-81
2022/12/11 03:02:25;;;;;;;;;;;0.30;99.90;;;;;;4999429;28;20292;-81
2022/12/11 03:04:50;;;;;;;;;;;0.30;99.90;;;;;;5016463;28;19928;-81
2022/12/11 03:07:24;;;;;;;;;;;0.30;99.90;;;;;;5016025;28;19968;-81
2022/12/11 03:09:50;;;;;;;;;;;0.30;99.90;;;;;;5016409;28;20365;-81
2022/12/11 03:12:28;;;;;;;;;;;0.30;99.90;;;;;;5015934;28;19921;-81
2022/12/11 03:14:53;;;;;;;;;;;0.30;99.90;;;;;;5015348;28;19928;-80
2022/12/11 03:17:24;;;;;;;;;;;0.30;99.90;;;;;;5016453;28;19925;-81
2022/12/11 03:20:08;;;;;;;;;;;0.30;99.90;;;;;;5015166;28;19921;-82
2022/12/11 03:22:46;;;;;;;;;;;0.30;99.90;;;;;;5016311;28;19961;-85
2022/12/11 03:25:16;;;;;;;;;;;0.30;99.90;;;;;;5016091;28;19928;-82
2022/12/11 03:27:45;;;;;;;;;;;0.40;99.90;;;;;;5015326;28;19921;-81
2022/12/11 03:30:12;;;;;;;;;;;0.40;99.90;;;;;;5016517;28;20276;-81
2022/12/11 03:32:42;;;;;;;;;;;0.40;99.90;;;;;;5016022;28;19929;-80
2022/12/11 03:35:12;;;;;;;;;;;0.40;99.90;;;;;;5015452;28;19976;-81
2022/12/11 03:37:39;;;;;;;;;;;0.30;99.90;;;;;;5015109;28;19925;-81
2022/12/11 03:40:08;;;;;;;;;;;0.40;99.90;;;;;;5015742;28;20361;-81
2022/12/11 03:42:34;;;;;;;;;;;0.40;99.90;;;;;;5014728;28;20361;-81
2022/12/11 03:45:01;;;;;;;;;;;0.40;99.90;;;;;;4998862;28;20069;-81
2022/12/11 03:47:27;;;;;;;;;;;0.40;99.90;;;;;;5015672;28;19928;-82
2022/12/11 03:49:53;;;;;;;;;;;0.30;99.90;;;;;;5014460;28;19925;-81
2022/12/11 03:52:19;;;;;;;;;;;0.30;99.90;;;;;;5016008;28;19929;-81
2022/12/11 03:54:45;;;;;;;;;;;0.30;99.90;;;;;;5014179;28;20361;-81
2022/12/11 03:57:12;;;;;;;;;;;0.40;99.90;;;;;;5016020;28;19921;-80
2022/12/11 03:59:38;;;;;;;;;;;0.40;99.90;;;;;;5015133;28;19922;-80
2022/12/11 04:02:09;;;;;;;;;;;0.40;99.90;;;;;;5015498;28;19921;-80
2022/12/11 04:04:35;;;;;;;;;;;0.40;99.90;;;;;;5015443;28;20000;-83
2022/12/11 04:07:01;;;;;;;;;;;0.40;99.90;;;;;;5014641;28;19922;-81
2022/12/11 04:09:27;;;;;;;;;;;0.40;99.90;;;;;;5017470;28;19932;-80
2022/12/11 04:11:52;;;;;;;;;;;0.40;99.90;;;;;;5022188;28;19929;-80
2022/12/11 04:17:03;;;;;;;;;;;0.40;99.90;;;;;;5030933;28;19928;-81
2022/12/11 04:25:11;;;;;;;;;;;0.40;99.90;;;;;;5024271;28;19922;-80
2022/12/11 04:27:49;;;;;;;;;;;0.50;99.90;;;;;;5014811;28;19971;-80
2022/12/11 04:30:16;;;;;;;;;;;0.50;99.90;;;;;;5015455;28;19922;-81
2022/12/11 04:32:42;;;;;;;;;;;0.40;99.90;;;;;;5015036;28;19928;-83
2022/12/11 04:35:08;;;;;;;;;;;0.50;99.90;;;;;;5014551;28;19921;-81
2022/12/11 04:37:34;;;;;;;;;;;0.40;99.90;;;;;;5014634;28;20381;-81
2022/12/11 04:40:00;;;;;;;;;;;0.50;99.90;;;;;;5013749;28;20026;-81
2022/12/11 04:42:26;;;;;;;;;;;0.50;99.90;;;;;;5013688;28;20426;-81
2022/12/11 04:44:51;;;;;;;;;;;0.60;99.90;;;;;;5015293;28;19921;-82
2022/12/11 04:47:17;;;;;;;;;;;0.50;99.90;;;;;;4997194;28;19926;-81
2022/12/11 04:49:42;;;;;;;;;;;0.50;99.90;;;;;;5015272;28;19921;-81
2022/12/11 04:52:08;;;;;;;;;;;0.50;99.90;;;;;;5014942;28;20260;-81
2022/12/11 04:54:34;;;;;;;;;;;0.50;99.90;;;;;;5014362;28;19921;-82
2022/12/11 04:56:59;;;;;;;;;;;0.50;99.90;;;;;;5013275;28;20272;-81
2022/12/11 04:59:25;;;;;;;;;;;0.40;99.90;;;;;;5014334;28;19998;-82
2022/12/11 05:01:50;;;;;;;;;;;0.50;99.90;;;;;;5013394;28;19928;-80
2022/12/11 05:04:16;;;;;;;;;;;0.50;99.90;;;;;;5013138;28;19983;-81
2022/12/11 05:06:41;;;;;;;;;;;0.50;99.90;;;;;;5013367;28;19968;-81
2022/12/11 05:09:10;;;;;;;;;;;0.50;99.90;;;;;;5012951;28;19944;-81
2022/12/11 05:11:36;;;;;;;;;;;0.50;99.90;;;;;;5013629;28;20412;-81
2022/12/11 05:14:02;;;;;;;;;;;0.50;99.90;;;;;;5014697;28;20072;-80
2022/12/11 05:16:27;;;;;;;;;;;0.40;99.90;;;;;;5014673;28;19976;-81
2022/12/11 05:18:53;;;;;;;;;;;0.50;99.90;;;;;;5012852;28;19968;-81
2022/12/11 05:21:19;;;;;;;;;;;0.50;99.90;;;;;;5014350;28;20024;-81
2022/12/11 05:23:44;;;;;;;;;;;0.50;99.90;;;;;;5013993;28;19921;-81
2022/12/11 05:26:12;;;;;;;;;;;0.50;99.90;;;;;;5012774;28;20015;-81
2022/12/11 05:28:38;;;;;;;;;;;0.50;99.90;;;;;;5012742;28;20294;-81
2022/12/11 05:31:05;;;;;;;;;;;0.50;99.90;;;;;;5013946;28;20012;-81
2022/12/11 05:33:31;;;;;;;;;;;0.50;99.90;;;;;;5014126;28;20392;-81
2022/12/11 05:35:57;;;;;;;;;;;0.60;99.90;;;;;;5013917;28;19926;-80
2022/12/11 05:38:23;;;;;;;;;;;0.50;99.90;;;;;;5013364;28;19936;-80
2022/12/11 05:40:59;;;;;;;;;;;0.60;99.90;;;;;;5013800;28;20011;-84
2022/12/11 05:43:25;;;;;;;;;;;0.50;99.90;;;;;;5013844;28;19976;-80
2022/12/11 05:45:50;;;;;;;;;;;0.50;99.90;;;;;;5013800;28;20327;-82
2022/12/11 05:48:16;;;;;;;;;;;0.50;99.90;;;;;;5013736;28;19921;-80
2022/12/11 05:50:42;;;;;;;;;;;0.50;99.90;;;;;;5013814;28;19921;-80
2022/12/11 05:53:07;;;;;;;;;;;0.50;99.90;;;;;;5013667;28;19972;-81
2022/12/11 05:55:33;;;;;;;;;;;0.50;99.90;;;;;;5013491;28;19921;-81
2022/12/11 05:57:59;;;;;;;;;;;0.50;99.90;;;;;;5012924;28;20226;-80
2022/12/11 06:00:24;;;;;;;;;;;0.50;99.90;;;;;;5013833;28;19921;-81
2022/12/11 06:02:50;;;;;;;;;;;0.50;99.90;;;;;;5014093;28;19928;-81
2022/12/11 06:05:16;;;;;;;;;;;0.50;99.90;;;;;;5013703;28;20430;-81
2022/12/11 06:07:41;;;;;;;;;;;0.50;99.90;;;;;;5013595;28;20328;-81
2022/12/11 06:10:07;;;;;;;;;;;0.40;99.90;;;;;;5013907;28;20280;-83
2022/12/11 06:12:32;;;;;;;;;;;0.50;99.90;;;;;;5012774;28;19921;-80
2022/12/11 06:14:58;;;;;;;;;;;0.50;99.90;;;;;;5013474;28;19925;-80
2022/12/11 06:17:24;;;;;;;;;;;0.40;99.90;;;;;;5013547;28;19929;-81
2022/12/11 06:19:49;;;;;;;;;;;0.50;99.90;;;;;;5012740;28;20363;-80
2022/12/11 06:22:15;;;;;;;;;;;0.40;99.90;;;;;;5013679;28;19925;-83
2022/12/11 06:24:40;;;;;;;;;;;0.40;99.90;;;;;;5013752;28;19922;-81
2022/12/11 06:27:06;;;;;;;;;;;0.50;99.90;;;;;;5013456;28;19961;-81
2022/12/11 06:29:31;;;;;;;;;;;0.40;99.90;;;;;;5023994;28;19928;-80
2022/12/11 06:31:57;;;;;;;;;;;0.50;99.90;;;;;;4999330;28;20086;-81
2022/12/11 06:34:22;;;;;;;;;;;0.60;99.90;;;;;;4995821;28;19922;-80
2022/12/11 06:36:48;;;;;;;;;;;0.60;99.90;;;;;;5013752;28;19928;-81
2022/12/11 06:39:13;;;;;;;;;;;0.50;99.90;;;;;;5012362;28;19921;-80
2022/12/11 06:41:39;;;;;;;;;;;0.50;99.90;;;;;;5015510;28;19921;-80
2022/12/11 06:44:05;;;;;;;;;;;0.50;99.90;;;;;;5017207;28;20250;-80
2022/12/11 06:46:30;;;;;;;;;;;0.60;99.90;;;;;;5017538;28;19921;-81
2022/12/11 06:48:56;;;;;;;;;;;0.50;99.90;;;;;;5015593;28;20384;-81
2022/12/11 06:51:22;;;;;;;;;;;0.50;99.90;;;;;;5015786;28;19921;-84
2022/12/11 06:53:52;;;;;;;;;;;0.50;99.90;;;;;;5016922;28;19925;-81
2022/12/11 06:56:17;;;;;;;;;;;0.50;99.90;;;;;;5016782;28;19987;-82
2022/12/11 06:58:43;;;;;;;;;;;0.60;99.90;;;;;;5016830;28;19968;-81
2022/12/11 07:01:24;;;;;;;;;;;0.60;99.90;;;;;;5015737;28;19921;-80
2022/12/11 07:03:54;;;;;;;;;;;0.60;99.90;;;;;;5015696;28;19921;-82
2022/12/11 07:06:20;;;;;;;;;;;0.50;99.90;;;;;;5016714;28;20412;-81
2022/12/11 07:08:45;;;;;;;;;;;0.50;99.90;;;;;;5023722;28;19922;-84
2022/12/11 07:11:12;;;;;;;;;;;0.60;99.90;;;;;;5021910;28;19944;-80
2022/12/11 07:13:39;;;;;;;;;;;0.60;99.90;;;;;;5021997;28;19968;-81
2022/12/11 07:16:09;;;;;;;;;;;0.60;99.90;;;;;;5021846;28;19922;-80
2022/12/11 07:18:39;;;;;;;;;;;0.60;99.90;;;;;;5019403;28;20411;-82
2022/12/11 07:21:05;;;;;;;;;;;0.60;99.90;;;;;;5018242;28;20016;-81
2022/12/11 07:23:31;;;;;;;;;;;0.60;99.90;;;;;;5017624;28;19944;-80
2022/12/11 07:25:56;;;;;;;;;;;0.60;99.90;;;;;;5016460;28;20369;-81
2022/12/11 07:28:22;;;;;;;;;;;0.60;99.90;;;;;;5016696;28;20345;-83
2022/12/11 07:30:48;;;;;;;;;;;0.60;99.90;;;;;;5016385;28;19929;-81
2022/12/11 07:33:14;;;;;;;;;;;0.60;99.90;;;;;;5015554;28;20369;-81
2022/12/11 07:35:40;;;;;;;;;;;0.60;99.90;;;;;;5016782;28;19922;-83
2022/12/11 07:38:05;;;;;;;;;;;0.60;99.90;;;;;;5016126;28;20000;-80
2022/12/11 07:40:32;;;;;;;;;;;0.60;99.90;;;;;;4999718;28;19925;-80
2022/12/11 07:42:57;;;;;;;;;;;0.60;99.90;;;;;;5016161;28;20002;-81
2022/12/11 07:45:25;;;;;;;;;;;0.60;99.90;;;;;;5015902;28;19922;-81
2022/12/11 07:47:51;;;;;;;;;;;0.60;99.90;;;;;;5015159;28;19928;-81
2022/12/11 07:50:16;;;;;;;;;;;0.70;99.90;;;;;;5016013;28;19921;-80
2022/12/11 07:52:42;;;;;;;;;;;0.60;99.90;;;;;;5013779;28;20284;-80
2022/12/11 07:55:08;;;;;;;;;;;0.60;99.90;;;;;;5014404;28;19928;-81
2022/12/11 07:57:34;;;;;;;;;;;0.70;99.90;;;;;;5016083;28;19972;-80
2022/12/11 07:59:59;;;;;;;;;;;0.60;99.90;;;;;;5015163;28;19928;-81
2022/12/11 08:02:25;;;;;;;;;;;0.60;99.90;;;;;;5015858;28;19925;-82
2022/12/11 08:04:50;;;;;;;;;;;0.70;99.90;;;;;;5014744;28;20015;-82
2022/12/11 08:07:16;;;;;;;;;;;0.60;99.90;;;;;;5016019;28;19921;-81
2022/12/11 08:09:41;;;;;;;;;;;0.60;99.90;;;;;;5014690;28;20345;-81
2022/12/11 08:12:07;;;;;;;;;;;0.80;99.90;;;;;;5014183;28;19926;-81
2022/12/11 08:14:33;;;;;;;;;;;0.80;99.90;;;;;;5014083;28;19921;-82
2022/12/11 08:16:59;;;;;;;;;;;0.70;99.90;;;;;;5016152;28;19952;-81
2022/12/11 08:19:24;;;;;;;;;;;0.70;99.90;;;;;;5016057;28;19975;-81
2022/12/11 08:21:50;;;;;;;;;;;0.70;99.90;;;;;;5015196;28;20382;-81
2022/12/11 08:24:19;;;;;;;;;;;0.70;99.90;;;;;;5015110;28;19921;-82
2022/12/11 08:26:46;;;;;;;;;;;0.70;99.90;;;;;;5014037;28;19927;-83
2022/12/11 08:29:12;;;;;;;;;;;0.70;99.90;;;;;;5015644;28;19921;-82
2022/12/11 08:31:38;;;;;;;;;;;0.70;99.90;;;;;;5014220;28;19983;-81
2022/12/11 08:34:04;;;;;;;;;;;0.70;99.90;;;;;;5014565;28;19921;-82
2022/12/11 08:36:29;;;;;;;;;;;0.70;99.90;;;;;;4997224;28;20431;-81
2022/12/11 08:38:55;;;;;;;;;;;0.70;99.90;;;;;;5014137;28;19928;-81
2022/12/11 08:41:22;;;;;;;;;;;0.70;99.90;;;;;;5014954;28;20361;-83
2022/12/11 08:43:48;;;;;;;;;;;0.70;99.90;;;;;;5014889;28;19932;-82
2022/12/11 08:46:14;;;;;;;;;;;0.70;99.90;;;;;;5015839;28;20004;-80
2022/12/11 08:48:41;;;;;;;;;;;0.70;99.90;;;;;;5027546;28;19967;-83
2022/12/11 08:51:09;;;;;;;;;;;0.70;99.90;;;;;;5016225;28;20063;-82
2022/12/11 08:53:35;;;;;;;;;;;0.70;99.90;;;;;;5014210;28;20047;-81
2022/12/11 08:56:01;;;;;;;;;;;0.70;99.90;;;;;;5013194;28;20000;-81
2022/12/11 08:58:27;;;;;;;;;;;0.70;99.90;;;;;;5014311;28;20268;-81
2022/12/11 09:00:52;;;;;;;;;;;0.70;99.90;;;;;;5014532;28;20063;-81
2022/12/11 09:03:18;;;;;;;;;;;0.70;99.90;;;;;;5014404;28;19960;-82
2022/12/11 09:05:43;;;;;;;;;;;0.80;99.90;;;;;;5013547;28;19927;-80
2022/12/11 09:08:09;;;;;;;;;;;0.80;99.90;;;;;;5014456;28;19925;-81
2022/12/11 09:10:35;;;;;;;;;;;0.70;99.90;;;;;;5013083;28;19921;-81
2022/12/11 09:13:00;;;;;;;;;;;0.70;99.90;;;;;;5014195;28;19928;-82
2022/12/11 09:15:26;;;;;;;;;;;0.70;99.90;;;;;;5014113;28;19999;-82
2022/12/11 09:17:52;;;;;;;;;;;0.80;99.90;;;;;;5014120;28;19968;-81
2022/12/11 09:20:17;;;;;;;;;;;0.80;99.90;;;;;;5012756;28;19933;-83
2022/12/11 09:22:43;;;;;;;;;;;0.70;99.90;;;;;;5013856;28;19921;-82
2022/12/11 09:25:08;;;;;;;;;;;0.80;99.90;;;;;;5013234;28;19921;-83
2022/12/11 09:27:34;;;;;;;;;;;0.80;99.90;;;;;;5013187;28;19922;-80
2022/12/11 09:29:59;;;;;;;;;;;0.80;99.90;;;;;;5013990;28;19921;-80
2022/12/11 09:32:25;;;;;;;;;;;0.80;99.90;;;;;;5014144;28;19921;-80
2022/12/11 09:34:51;;;;;;;;;;;0.80;99.90;;;;;;5013725;28;20357;-86
2022/12/11 09:37:16;;;;;;;;;;;0.90;99.90;;;;;;5012922;28;19921;-80
2022/12/11 09:39:42;;;;;;;;;;;0.80;99.90;;;;;;5014128;28;19922;-81
2022/12/11 09:42:07;;;;;;;;;;;0.80;99.90;;;;;;5013255;28;20040;-80
2022/12/11 09:51:23;;;;;;;;;;;0.80;99.90;;;;;;5013345;28;19920;-83
2022/12/11 09:53:50;;;;;;;;;;;0.90;99.90;;;;;;5014368;28;20273;-81
2022/12/11 09:56:30;;;;;;;;;;;0.90;99.90;;;;;;5013303;28;19921;-81
2022/12/11 09:59:15;;;;;;;;;;;0.90;99.90;;;;;;5013000;28;20375;-81
2022/12/11 10:01:41;;;;;;;;;;;0.90;99.90;;;;;;5012232;28;19921;-81
2022/12/11 10:04:13;;;;;;;;;;;0.90;99.90;;;;;;5012459;28;20339;-81
2022/12/11 10:06:41;;;;;;;;;;;0.90;99.90;;;;;;5014403;28;19978;-82
2022/12/11 10:09:18;;;;;;;;;;;0.90;99.90;;;;;;5014066;28;19960;-81
2022/12/11 10:11:55;;;;;;;;;;;0.90;99.90;;;;;;5018140;28;19929;-80
2022/12/11 10:14:24;;;;;;;;;;;0.90;99.90;;;;;;5018366;28;19967;-81
2022/12/11 10:16:51;;;;;;;;;;;0.90;99.90;;;;;;5017602;28;19928;-81
2022/12/11 10:19:22;;;;;;;;;;;0.90;99.90;;;;;;5017360;28;20012;-84
2022/12/11 10:21:48;;;;;;;;;;;0.90;99.90;;;;;;5017671;28;20018;-80
2022/12/11 10:24:32;;;;;;;;;;;0.90;99.90;;;;;;5016049;28;19922;-80
2022/12/11 10:26:59;;;;;;;;;;;0.90;99.90;;;;;;5016208;28;19944;-80
2022/12/11 10:29:25;;;;;;;;;;;1.00;99.90;;;;;;5017370;28;19928;-80
2022/12/11 10:31:55;;;;;;;;;;;1.00;99.90;;;;;;5017438;28;20008;-80
2022/12/11 10:34:24;;;;;;;;;;;0.90;99.90;;;;;;5016360;28;19921;-80
2022/12/11 10:36:50;;;;;;;;;;;0.90;99.90;;;;;;5016493;28;20288;-82
2022/12/11 10:39:19;;;;;;;;;;;1.00;99.90;;;;;;5016878;28;20012;-81
2022/12/11 10:41:46;;;;;;;;;;;1.10;99.90;;;;;;4999335;28;19921;-83
2022/12/11 10:44:17;;;;;;;;;;;1.00;99.90;;;;;;5017266;28;19922;-83
2022/12/11 10:46:44;;;;;;;;;;;1.00;99.90;;;;;;4999725;28;20328;-83
2022/12/11 10:49:39;;;;;;;;;;;0.90;99.90;;;;;;4999392;28;19971;-81
2022/12/11 10:52:16;;;;;;;;;;;0.90;99.90;;;;;;5027635;28;19921;-81
2022/12/11 10:54:43;;;;;;;;;;;1.00;99.90;;;;;;5016177;28;19928;-83
2022/12/11 10:57:10;;;;;;;;;;;1.00;99.90;;;;;;5017700;28;20260;-81
2022/12/11 10:59:37;;;;;;;;;;;1.00;99.90;;;;;;5017284;28;19921;-82
2022/12/11 11:02:03;;;;;;;;;;;1.00;99.90;;;;;;5016146;28;19921;-81
2022/12/11 11:04:34;;;;;;;;;;;0.90;99.90;;;;;;5016577;28;19983;-81
2022/12/11 11:07:01;;;;;;;;;;;1.00;99.90;;;;;;5021001;28;19921;-80
2022/12/11 11:09:28;;;;;;;;;;;1.00;99.90;;;;;;5024781;28;20005;-80
2022/12/11 11:11:54;;;;;;;;;;;1.00;99.90;;;;;;5015283;28;19936;-80
2022/12/11 11:14:20;;;;;;;;;;;1.10;99.90;;;;;;5016383;28;19921;-80
2022/12/11 11:16:48;;;;;;;;;;;1.00;99.90;;;;;;5015042;28;19922;-81
2022/12/11 11:19:33;;;;;;;;;;;1.00;99.90;;;;;;5015407;28;19929;-80
2022/12/11 11:22:06;;;;;;;;;;;1.00;99.90;;;;;;5015950;28;19929;-80
2022/12/11 11:24:34;;;;;;;;;;;1.00;99.90;;;;;;5015456;28;20053;-80
2022/12/11 11:27:00;;;;;;;;;;;1.00;99.90;;;;;;5015911;28;19923;-88
2022/12/11 11:29:29;;;;;;;;;;;1.10;99.90;;;;;;5017000;28;19921;-78
2022/12/11 11:31:55;;;;;;;;;;;1.10;99.90;;;;;;5016528;28;19932;-80
2022/12/11 11:34:21;;;;;;;;;;;1.00;99.90;;;;;;5016408;28;19922;-79
2022/12/11 11:36:56;;;;;;;;;;;1.00;99.90;;;;;;5015754;28;19969;-80
2022/12/11 11:39:27;;;;;;;;;;;1.00;99.90;;;;;;5016428;28;20292;-79
2022/12/11 11:41:57;;;;;;;;;;;1.10;99.90;;;;;;5016152;28;19921;-81
2022/12/11 11:44:28;;;;;;;;;;;1.00;99.90;;;;;;5015613;28;20316;-79
2022/12/11 11:46:59;;;;;;;;;;;1.00;99.90;;;;;;5015910;28;19928;-81
2022/12/11 11:49:28;;;;;;;;;;;1.00;99.90;;;;;;5014883;28;20077;-80
2022/12/11 11:52:00;;;;;;;;;;;1.00;99.90;;;;;;5015637;28;20261;-82
2022/12/11 11:54:34;;;;;;;;;;;1.10;99.90;;;;;;5015660;28;19925;-80
2022/12/11 11:57:18;;;;;;;;;;;1.10;99.90;;;;;;5014072;28;19922;-80
2022/12/11 11:59:48;;;;;;;;;;;1.10;99.90;;;;;;5015649;28;20399;-80
2022/12/11 12:02:15;;;;;;;;;;;1.10;99.90;;;;;;5015377;28;20008;-81
2022/12/11 12:04:41;;;;;;;;;;;1.10;99.90;;;;;;5015431;28;19921;-80
2022/12/11 12:07:25;;;;;;;;;;;1.10;99.90;;;;;;5015536;28;19921;-81
2022/12/11 12:10:02;;;;;;;;;;;1.10;99.90;;;;;;5014113;28;20005;-80
2022/12/11 12:12:40;;;;;;;;;;;1.10;99.90;;;;;;5014431;28;19925;-80
2022/12/11 12:15:12;;;;;;;;;;;1.10;99.90;;;;;;5014769;28;19936;-81
2022/12/11 12:17:46;;;;;;;;;;;1.10;99.90;;;;;;5014761;28;19925;-80
2022/12/11 12:20:14;;;;;;;;;;;1.10;99.90;;;;;;5015088;28;20340;-80
2022/12/11 12:22:52;;;;;;;;;;;1.10;99.90;;;;;;5014826;28;19918;-81
2022/12/11 12:25:25;;;;;;;;;;;1.10;99.90;;;;;;5014387;28;19922;-82
2022/12/11 12:28:17;;;;;;;;;;;1.10;99.90;;;;;;5015805;28;19917;-81
2022/12/11 12:31:03;;;;;;;;;;;1.10;99.90;;;;;;5029892;28;19918;-80
2022/12/11 12:33:41;;;;;;;;;;;1.10;99.90;;;;;;5014299;28;19917;-80
2022/12/11 12:36:15;;;;;;;;;;;1.10;99.90;;;;;;5013890;28;19917;-82
2022/12/11 12:38:52;;;;;;;;;;;1.10;99.90;;;;;;5014378;28;20344;-80
2022/12/11 12:41:21;;;;;;;;;;;1.10;99.90;;;;;;5015485;28;19921;-80
2022/12/11 12:43:46;;;;;;;;;;;1.10;99.90;;;;;;5015064;28;19952;-80
2022/12/11 12:46:23;;;;;;;;;;;1.10;99.90;;;;;;5013737;28;20363;-81
2022/12/11 12:48:50;;;;;;;;;;;1.10;99.90;;;;;;5015229;28;19968;-80
2022/12/11 12:51:16;;;;;;;;;;;1.10;99.90;;;;;;5015126;28;19975;-81
2022/12/11 12:53:45;;;;;;;;;;;1.10;99.90;;;;;;5013636;28;20264;-81
2022/12/11 12:56:11;;;;;;;;;;;1.20;99.90;;;;;;5014072;28;20003;-82
2022/12/11 12:58:42;;;;;;;;;;;1.10;99.90;;;;;;5014377;28;19991;-81
2022/12/11 13:01:08;;;;;;;;;;;1.10;99.90;;;;;;5013424;28;19921;-81
2022/12/11 13:03:53;;;;;;;;;;;1.10;99.90;;;;;;5014558;28;19917;-81
2022/12/11 13:06:30;;;;;;;;;;;1.10;99.90;;;;;;5014103;28;20340;-81
2022/12/11 13:08:56;;;;;;;;;;;1.10;99.90;;;;;;5014447;28;19917;-81
2022/12/11 13:11:30;;;;;;;;;;;1.10;99.90;;;;;;5013398;28;19917;-81
2022/12/11 13:14:20;;;;;;;;;;;1.10;99.90;;;;;;5014709;28;19963;-80
2022/12/11 13:16:50;;;;;;;;;;;1.10;99.90;;;;;;5014732;28;19917;-82
2022/12/11 13:19:22;;;;;;;;;;;1.10;99.90;;;;;;5013235;28;19917;-82
2022/12/11 13:21:58;;;;;;;;;;;1.00;99.90;;;;;;5014230;28;20364;-81
2022/12/11 13:24:26;;;;;;;;;;;1.00;99.90;;;;;;5013658;28;19917;-82
2022/12/11 13:26:52;;;;;;;;;;;1.00;99.90;;;;;;5017149;28;19940;-82
2022/12/11 13:29:30;;;;;;;;;;;0.90;99.90;;;;;;5027110;28;20353;-84
2022/12/11 13:32:01;;;;;;;;;;;1.00;99.90;;;;;;5014109;28;20327;-81
2022/12/11 13:34:31;;;;;;;;;;;0.90;99.90;;;;;;5014772;28;19917;-81
2022/12/11 13:36:56;;;;;;;;;;;1.00;99.90;;;;;;5013903;28;19969;-85
2022/12/11 13:39:26;;;;;;;;;;;0.90;99.90;;;;;;5013353;28;20060;-81
2022/12/11 13:41:57;;;;;;;;;;;0.90;99.90;;;;;;5012874;28;19921;-80
2022/12/11 13:44:24;;;;;;;;;;;0.90;99.90;;;;;;5014206;28;19987;-80
2022/12/11 13:46:52;;;;;;;;;;;0.90;99.90;;;;;;5014057;28;19925;-80
2022/12/11 13:49:22;;;;;;;;;;;1.00;99.90;;;;;;5013802;28;19925;-83
2022/12/11 13:51:52;;;;;;;;;;;0.90;99.90;;;;;;5016507;28;20352;-82
2022/12/11 13:54:18;;;;;;;;;;;0.90;99.90;;;;;;5018592;28;19975;-82
2022/12/11 13:56:54;;;;;;;;;;;0.90;99.90;;;;;;5000613;28;19971;-81
2022/12/11 13:59:27;;;;;;;;;;;1.00;99.90;;;;;;5019181;28;20343;-80
2022/12/11 14:01:54;;;;;;;;;;;1.00;99.90;;;;;;5019441;28;19918;-80
2022/12/11 14:04:21;;;;;;;;;;;1.00;99.90;;;;;;5023987;28;19917;-80
2022/12/11 14:06:47;;;;;;;;;;;1.00;99.90;;;;;;5023828;28;19917;-82
2022/12/11 14:09:17;;;;;;;;;;;1.00;99.90;;;;;;5039120;28;19925;-80
2022/12/11 14:11:45;;;;;;;;;;;1.00;99.90;;;;;;5018985;28;19972;-81
2022/12/11 14:14:21;;;;;;;;;;;1.00;99.90;;;;;;5017746;28;19965;-80
2022/12/11 14:16:48;;;;;;;;;;;1.00;99.90;;;;;;5018468;28;19917;-81
2022/12/11 14:19:15;;;;;;;;;;;0.90;99.90;;;;;;5016659;28;20349;-81
2022/12/11 14:21:40;;;;;;;;;;;1.00;99.90;;;;;;5020184;28;19979;-82
2022/12/11 14:24:10;;;;;;;;;;;1.00;99.90;;;;;;5024882;28;19917;-81
2022/12/11 14:26:37;;;;;;;;;;;1.00;99.90;;;;;;5022479;28;19917;-80
2022/12/11 14:29:03;;;;;;;;;;;1.00;99.90;;;;;;5021187;28;19965;-79
2022/12/11 14:31:32;;;;;;;;;;;1.00;99.90;;;;;;5022368;28;19940;-80
2022/12/11 14:34:13;;;;;;;;;;;1.00;99.90;;;;;;5021632;28;19922;-81
2022/12/11 14:36:40;;;;;;;;;;;1.00;99.90;;;;;;5020449;28;20246;-81
2022/12/11 14:39:24;;;;;;;;;;;1.00;99.90;;;;;;5018260;28;19924;-80
2022/12/11 14:42:00;;;;;;;;;;;1.00;99.90;;;;;;5016262;28;19925;-81
2022/12/11 14:44:28;;;;;;;;;;;1.00;99.90;;;;;;5018012;28;20080;-81
2022/12/11 14:46:57;;;;;;;;;;;1.10;99.90;;;;;;5016193;28;20345;-81
2022/12/11 14:49:32;;;;;;;;;;;0.90;99.90;;;;;;4999940;28;19917;-80
2022/12/11 14:51:58;;;;;;;;;;;1.00;99.90;;;;;;5016952;28;20088;-81